AddedLatest Added eBooks:

  1. 2020-04-29World Traveller - April May 2020
  2. 2020-04-29The Future of the Brain: Essays by the World's Leading Neuroscientists
  3. 2020-04-29The Washington Times - Vol 38 No 77 [16 Apr 2020]
  4. 2020-04-29The Washington Times - Vol 38 No 84 [27 Apr 2020]
  5. 2020-04-29The Devil Wins: A History of Lying from the Garden of Eden to the Enlightenment
  6. 2020-04-29The Washington Times - Vol 38 No 81 [22 Apr 2020]
  7. 2020-04-29USA Today - Vol 38 No 157 [22 Apr 2020]
  8. 2020-04-29Ideas of Liberty in Early Modern Europe: From Machiavelli to Milton
  9. 2020-04-29USA Today - Vol 38 No 155 [20 Apr 2020]
  10. 2020-04-29The Power and Independence of the Federal Reserve
  11. 2020-04-29The Wall Street Journal - Vol 275 No 090 [17 Apr 2020]
  12. 2020-04-29American Zoo: A Sociological Safari
  13. 2020-04-29Beyond Religious Freedom: The New Global Politics of Religion
  14. 2020-04-29The Globe and Mail (Ottawa Québec Edition) [2020 04 17]
  15. 2020-04-29The Birth of Politics: Eight Greek and Roman Political Ideas and Why They Matter
  16. 2020-04-29The Times - No 73,140 [22 Apr 2020]
  17. 2020-04-29The New York Times - No 58,669 [20 Apr 2020]
  18. 2020-04-29The New York Times (International Edition) - No 42,643 [22 Apr 2020]
  19. 2020-04-29Graphicriver Floral Postcard Wedding Invitation 14153935
  20. 2020-04-29The New York Times - No 58,674 [25 Apr 2020]
  21. 2020-04-29A Short History of German Philosophy
  22. 2020-04-29The Boston Globe - Vol 297 No 113 [22 Apr 2020]
  23. 2020-04-29Sonokinetic Carillon KONTAKT
  24. 2020-04-29Success and Luck: Good Fortune and the Myth of Meritocracy
  25. 2020-04-29Siemens NX 1915.2801 (NX 1899 Series) Update.Only
  26. 2020-04-29The Boston Globe - Vol 297 No 116 [25 Apr 2020]
  27. 2020-04-29The Globe and Mail (Ottawa Québec Edition) [2020 04 22]
  28. 2020-04-29Qiplex Filmographer v1.0.1
  29. 2020-04-29The Scotsman [2020 04 24]
  30. 2020-04-29New York Post - Vol 219 No 157 [20 Apr 2020]
  31. 2020-04-29The Wall Street Journal - Vol 275 No 089 [16 Apr 2020]
  32. 2020-04-29Ethical Life: Its Natural and Social Histories
  33. 2020-04-29Q-Dir 8.11 Multilingual
  34. 2020-04-29The Globe and Mail (Ottawa Québec Edition) [2020 04 18]
  35. 2020-04-29NextUp TextAloud 4.0.48
  36. 2020-04-29The Scotsman [2020 04 20]
  37. 2020-04-29Weekender 2011 720p BluRay x264-x0r
  38. 2020-04-29Sunday World [2020 04 19]
  39. 2020-04-29The New York Times - No 58,673 [24 Apr 2020]
  40. 2020-04-29Evil in Modern Thought: An Alternative History of Philosophy (Princeton Classics)
  41. 2020-04-29Los Angeles Times - Vol 139 No 143 [24 Apr 2020]
  42. 2020-04-29MusConv Ultimate 4.9.49
  43. 2020-04-29MSTech Image Resize Basic 1.9.7.1056 Portable
  44. 2020-04-29The Times - No 73,137 [18 Apr 2020]
  45. 2020-04-29Arab Nationalism in the Twentieth Century: From Triumph to Despair - New Edition with a new chapter on the twenty-first-century Arab world
  46. 2020-04-29Sunday Express [2020 04 26]
  47. 2020-04-29ISIS: A History
  48. 2020-04-29The Sun [2020 04 20]
  49. 2020-04-29The Sun [2020 04 26]
  50. 2020-04-29New York Post - Vol 219 No 164 [27 Apr 2020]
  51. 2020-04-29Microsoft Project Server 2013 with SP1-FAGiSO
  52. 2020-04-29Dictators and Democrats: Masses, Elites, and Regime Change
  53. 2020-04-29The Washington Post - Year 143 Issue 139 [22 Apr 2020]
  54. 2020-04-29Evolution of the Igneous Rocks: Fiftieth Anniversary Perspectives (Princeton Legacy Library)
  55. 2020-04-29Abelssoft GClean 2019 v200 2 104
  56. 2020-04-29The New York Times - No 58,665 [16 Apr 2020]
  57. 2020-04-29The New York Times - No 58,670 [21 Apr 2020]
  58. 2020-04-29The New York Times (International Edition) - No 42,645 [24 Apr 2020]
  59. 2020-04-29The Washington Post - Year 143 Issue 138 [21 Apr 2020]
  60. 2020-04-29The Physical World of Late Antiquity (Princeton Legacy Library)
  61. 2020-04-29Lynda IOS Development Tips Weekly UPDATE 20200225
  62. 2020-04-29Palestine and the Great Powers, 1945-1948 (Princeton Legacy Library)
  63. 2020-04-29The Sun [2020 04 27]
  64. 2020-04-29The Wall Street Journal - Vol 275 No 095 [23 Apr 2020]
  65. 2020-04-29Ottoman Rule in Damascus, 1708-1758 (Princeton Studies on the Near East)
  66. 2020-04-29Linkedin Learning SurveyMonkey Essential Training
  67. 2020-04-29The New York Times (International Edition) - No 42,639 [17 Apr 2020]
  68. 2020-04-29Waxwork II Lost in Time 1992 1080p BluRay H264 AC3 DD2 0 Will1869
  69. 2020-04-29The New York Times - No 58,666 [17 Apr 2020]
  70. 2020-04-29Linkedin Learning Cisco Certifications First Steps
  71. 2020-04-29The Boston Globe - Vol 297 No 109 [18 Apr 2020]
  72. 2020-04-29The Sun [2020 04 22]
  73. 2020-04-29Packt Jira 8 Recipes
  74. 2020-04-29The Scotsman [2020 04 18]
  75. 2020-04-29The Sunday Times - No 10,206 [19 Apr 2020]
  76. 2020-04-29Los Angeles Times - Vol 139 No 140 [21 Apr 2020]
  77. 2020-04-29Lynda AWS Security Best Practices for Developers UPDATE 20200219
  78. 2020-04-29Getting Your Specialty Food Product Onto Store Shelves: The Ultimate Wholesale How-To Guide For Artisan Food Companies
  79. 2020-04-29The Globe and Mail (Ottawa Québec Edition) [2020 04 24]
  80. 2020-04-29Eat to Love: sweet bites for the mouth & heart
  81. 2020-04-29Linkedin Learning Cisco Certifications First Steps
  82. 2020-04-29The Digital Dionysus: Nietzsche and the Network-Centric Condition
  83. 2020-04-29The Washington Post - Year 143 Issue 136 [19 Apr 2020]
  84. 2020-04-29LYNDA GRAPHIC DESIGN TIPS AND TRICKS TUTORIAL-kEISO
  85. 2020-04-29The Washington Post - Year 143 Issue 133 [16 Apr 2020]
  86. 2020-04-29Die geheim gehaltene Geschichte Deutschlands: Was bis heute von Historikern verschwiegen wird Ed 4
  87. 2020-04-29Euroland: Empathie
  88. 2020-04-29The Producers 1967 720p BluRay x264-x0r
  89. 2020-04-29Groove3 Tracking Rock Bass TUTORiAL
  90. 2020-04-29The New York Times - No 58,668 [19 Apr 2020]
  91. 2020-04-29School Yourself Into Shape: A Fascinating Guide into Quickly Improving Your Health, Physique and Way of Life
  92. 2020-04-29The Globe and Mail (Ottawa Québec Edition) [2020 04 23]
  93. 2020-04-29The Times - No 73,135 [16 Apr 2020]
  94. 2020-04-29The Wall Street Journal - Vol 275 No 091 [18 - 19 Apr 2020]
  95. 2020-04-29Groove3 Mike Clark Funk Blues and Jazz TUTORiAL
  96. 2020-04-29The Sun [2020 04 16]
  97. 2020-04-29Mastermind Dinners: Build Lifelong Relationships by Connecting Experts, Influencers, and Linchpins
  98. 2020-04-29Nazi Oaks: The Green Sacrifice of the Judeo Christian Worldview in the Holocaust Ed 4
  99. 2020-04-29Snow Buddies 2008 1080p BluRay x264 DTS-FGT

More eBooks ...

43726 pages, 4372595 eBooks in total, list all pages->

Search free ebooks in ebookee.com!
Back to Top
捕鱼王app安卓下载 12007体育彩票排列5 哪个时时彩平台招总代 王中王马老师平特一肖 股票指数功能 二分pk10人工计划软件 青海11选5开奖结果查询 股票配资平台 安徽快3走势图带连线 吉林市快三开奖走势图 121期博彩金雕